createdAt,value
2019-01-27T00:01:55.872Z,4.50
2019-01-27T00:04:25.129Z,4.50
2019-01-27T00:06:54.782Z,4.50
2019-01-27T00:09:24.970Z,4.50
2019-01-27T00:11:54.387Z,4.50
2019-01-27T00:14:23.634Z,4.50
2019-01-27T00:16:53.368Z,4.50
2019-01-27T00:19:22.970Z,4.50
2019-01-27T00:21:52.221Z,4.50
2019-01-27T00:24:21.822Z,4.50
2019-01-27T00:26:51.385Z,4.50
2019-01-27T00:29:21.044Z,4.50
2019-01-27T00:31:50.703Z,4.50
2019-01-27T00:34:21.070Z,4.50
2019-01-27T00:36:51.239Z,4.50
2019-01-27T00:39:20.494Z,4.50
2019-01-27T00:41:49.705Z,4.50
2019-01-27T00:44:19.336Z,4.50
2019-01-27T00:46:48.542Z,4.50
2019-01-27T00:49:18.150Z,4.50
2019-01-27T00:51:47.388Z,4.50
2019-01-27T00:54:16.630Z,4.50
2019-01-27T00:56:46.436Z,4.50
2019-01-27T00:59:15.783Z,4.50
2019-01-27T01:01:45.169Z,4.50
2019-01-27T01:04:14.567Z,4.50
2019-01-27T01:06:45.176Z,4.50
2019-01-27T01:09:14.517Z,4.50
2019-01-27T01:11:44.534Z,4.50
2019-01-27T01:14:13.920Z,4.50
2019-01-27T01:16:43.343Z,4.50
2019-01-27T01:19:12.592Z,4.50
2019-01-27T01:21:42.028Z,4.50
2019-01-27T01:24:11.691Z,4.50
2019-01-27T01:26:41.282Z,4.50
2019-01-27T01:29:10.823Z,4.50
2019-01-27T01:31:40.222Z,4.50
2019-01-27T01:34:09.438Z,4.50
2019-01-27T01:36:38.822Z,4.50
2019-01-27T01:39:09.111Z,4.50
2019-01-27T01:41:38.314Z,4.50
2019-01-27T01:44:07.693Z,4.50
2019-01-27T01:46:37.549Z,4.50
2019-01-27T01:49:06.804Z,4.50
2019-01-27T01:51:36.511Z,4.50
2019-01-27T01:54:05.761Z,4.50
2019-01-27T01:56:35.342Z,4.50
2019-01-27T01:59:04.898Z,4.50
2019-01-27T02:01:34.157Z,4.40
2019-01-27T02:04:03.756Z,4.40
2019-01-27T02:06:33.257Z,4.40
2019-01-27T02:09:04.174Z,4.50
2019-01-27T02:11:33.826Z,4.40
2019-01-27T02:14:03.109Z,4.40
2019-01-27T02:16:32.521Z,4.40
2019-01-27T02:19:02.092Z,4.40
2019-01-27T02:21:31.372Z,4.40
2019-01-27T02:24:01.332Z,4.40
2019-01-27T02:26:31.266Z,4.40
2019-01-27T02:29:00.945Z,4.40
2019-01-27T02:31:31.261Z,4.40
2019-01-27T02:34:00.932Z,4.40
2019-01-27T02:36:30.967Z,4.30
2019-01-27T02:39:00.903Z,4.30
2019-01-27T02:41:30.114Z,4.30
2019-01-27T02:44:00.145Z,4.30
2019-01-27T02:46:29.503Z,4.30
2019-01-27T02:48:58.759Z,4.30
2019-01-27T02:51:27.993Z,4.30
2019-01-27T02:53:57.251Z,4.20
2019-01-27T02:56:26.891Z,4.20
2019-01-27T02:58:56.175Z,4.20
2019-01-27T03:01:25.407Z,4.20
2019-01-27T03:03:55.071Z,4.20
2019-01-27T03:06:39.130Z,4.10
2019-01-27T03:09:24.124Z,4.10
2019-01-27T03:11:53.452Z,4.10
2019-01-27T03:14:22.931Z,4.10
2019-01-27T03:16:53.567Z,4.10
2019-01-27T03:19:22.957Z,4.10
2019-01-27T03:21:53.206Z,4.10
2019-01-27T03:24:22.817Z,4.10
2019-01-27T03:26:53.354Z,4.00
2019-01-27T03:29:42.012Z,4.00
2019-01-27T03:32:11.294Z,4.00
2019-01-27T03:34:40.651Z,4.00
2019-01-27T03:37:09.897Z,4.00
2019-01-27T03:39:39.154Z,4.00
2019-01-27T03:42:08.519Z,4.00
2019-01-27T03:44:37.762Z,4.00
2019-01-27T03:47:07.273Z,4.00
2019-01-27T03:49:36.620Z,4.00
2019-01-27T03:52:06.377Z,4.00
2019-01-27T03:54:35.637Z,3.90
2019-01-27T03:57:05.011Z,3.90
2019-01-27T03:59:34.647Z,3.90
2019-01-27T04:02:03.978Z,3.90
2019-01-27T04:04:33.527Z,3.90
2019-01-27T04:07:03.131Z,3.90
2019-01-27T04:09:33.099Z,3.90
2019-01-27T04:12:02.827Z,3.90
2019-01-27T04:14:32.029Z,3.90
2019-01-27T04:17:01.851Z,3.90
2019-01-27T04:19:31.475Z,3.90
2019-01-27T04:22:01.162Z,3.90
2019-01-27T04:24:30.786Z,3.90
2019-01-27T04:27:00.386Z,3.90
2019-01-27T04:29:29.967Z,3.90
2019-01-27T04:31:59.875Z,3.90
2019-01-27T04:34:29.962Z,3.90
2019-01-27T04:36:59.252Z,3.90
2019-01-27T04:39:29.283Z,3.90
2019-01-27T04:41:58.528Z,3.90
2019-01-27T04:44:28.754Z,3.90
2019-01-27T04:46:58.090Z,3.90
2019-01-27T04:49:27.827Z,3.90
2019-01-27T04:51:57.347Z,3.90
2019-01-27T04:54:26.959Z,3.90
2019-01-27T04:56:56.941Z,3.90
2019-01-27T04:59:26.266Z,3.90
2019-01-27T05:01:55.913Z,3.90
2019-01-27T05:04:37.089Z,3.90
2019-01-27T05:07:06.317Z,3.90
2019-01-27T05:09:35.634Z,3.90
2019-01-27T05:12:05.254Z,3.90
2019-01-27T05:14:34.485Z,3.90
2019-01-27T05:17:03.706Z,3.90
2019-01-27T05:19:33.062Z,3.90
2019-01-27T05:22:02.807Z,3.90
2019-01-27T05:24:32.422Z,3.90
2019-01-27T05:27:01.672Z,3.90
2019-01-27T05:29:50.030Z,3.90
2019-01-27T05:32:19.679Z,3.90
2019-01-27T05:34:49.021Z,3.90
2019-01-27T05:37:18.619Z,3.90
2019-01-27T05:39:48.181Z,3.90
2019-01-27T05:42:17.974Z,3.90
2019-01-27T05:44:47.581Z,3.90
2019-01-27T05:47:16.796Z,3.90
2019-01-27T05:49:46.055Z,3.90
2019-01-27T05:52:15.728Z,3.90
2019-01-27T05:54:44.963Z,3.90
2019-01-27T05:57:14.177Z,3.90
2019-01-27T05:59:43.782Z,3.90
2019-01-27T06:02:13.141Z,3.90
2019-01-27T06:04:43.474Z,3.90
2019-01-27T06:07:13.126Z,3.90
2019-01-27T06:09:42.703Z,3.90
2019-01-27T06:12:12.242Z,3.90
2019-01-27T06:14:42.291Z,3.90
2019-01-27T06:17:11.677Z,3.90
2019-01-27T06:19:41.366Z,3.90
2019-01-27T06:22:10.639Z,3.90
2019-01-27T06:24:40.442Z,3.90
2019-01-27T06:27:10.042Z,3.90
2019-01-27T06:29:39.270Z,3.90
2019-01-27T06:32:10.449Z,3.90
2019-01-27T06:34:39.983Z,3.90
2019-01-27T06:37:10.062Z,3.90
2019-01-27T06:39:39.816Z,3.90
2019-01-27T06:42:09.034Z,4.00
2019-01-27T06:44:38.716Z,4.00
2019-01-27T06:47:07.967Z,4.00
2019-01-27T06:49:37.601Z,4.00
2019-01-27T06:52:06.828Z,4.00
2019-01-27T06:54:36.734Z,4.00
2019-01-27T06:57:06.710Z,4.00
2019-01-27T06:59:41.504Z,4.00
2019-01-27T07:02:35.832Z,4.00
2019-01-27T07:05:25.919Z,4.00
2019-01-27T07:08:01.440Z,4.00
2019-01-27T07:11:08.679Z,4.00
2019-01-27T07:14:25.103Z,4.00
2019-01-27T07:17:25.458Z,4.00
2019-01-27T07:20:03.838Z,4.00
2019-01-27T07:23:07.471Z,4.00
2019-01-27T07:25:56.102Z,4.00
2019-01-27T07:28:47.550Z,4.00
2019-01-27T07:32:07.461Z,4.00
2019-01-27T07:35:11.020Z,4.00
2019-01-27T07:38:02.196Z,4.00
2019-01-27T07:40:53.270Z,4.00
2019-01-27T07:43:29.845Z,4.00
2019-01-27T07:46:21.079Z,4.00
2019-01-27T07:49:09.161Z,4.00
2019-01-27T07:51:56.011Z,4.00
2019-01-27T07:54:59.758Z,4.00
2019-01-27T07:57:53.688Z,4.00
2019-01-27T08:00:48.467Z,4.00
2019-01-27T08:03:36.285Z,4.00
2019-01-27T08:06:27.592Z,4.00
2019-01-27T08:09:02.814Z,4.10
2019-01-27T08:11:40.686Z,4.10
2019-01-27T08:14:32.317Z,4.10
2019-01-27T08:17:17.446Z,4.10
2019-01-27T08:19:57.521Z,4.10
2019-01-27T08:23:04.181Z,4.20
2019-01-27T08:25:58.874Z,4.20
2019-01-27T08:28:47.238Z,4.20
2019-01-27T08:31:25.564Z,4.20
2019-01-27T08:34:14.610Z,4.20
2019-01-27T08:37:08.765Z,4.20
2019-01-27T08:40:00.500Z,4.20
2019-01-27T08:42:43.568Z,4.20
2019-01-27T08:45:38.073Z,4.20
2019-01-27T08:48:08.045Z,4.20
2019-01-27T08:50:37.281Z,4.20
2019-01-27T08:53:06.658Z,4.20
2019-01-27T08:55:35.838Z,4.20
2019-01-27T08:58:05.087Z,4.30
2019-01-27T09:00:36.835Z,4.30
2019-01-27T09:03:25.187Z,4.30
2019-01-27T09:06:10.550Z,4.30
2019-01-27T09:09:14.639Z,4.30
2019-01-27T09:12:04.614Z,4.40
2019-01-27T09:14:41.840Z,4.50
2019-01-27T09:17:30.151Z,4.50
2019-01-27T09:20:41.351Z,4.60
2019-01-27T09:23:26.469Z,4.60
2019-01-27T09:26:03.894Z,4.60
2019-01-27T09:28:38.844Z,4.70
2019-01-27T09:31:26.506Z,4.70
2019-01-27T09:34:18.318Z,4.80
2019-01-27T09:37:03.506Z,4.90
2019-01-27T09:39:47.022Z,4.90
2019-01-27T09:42:32.543Z,5.00
2019-01-27T09:45:33.391Z,5.10
2019-01-27T09:48:20.748Z,5.20
2019-01-27T09:51:21.018Z,5.20
2019-01-27T09:54:12.287Z,5.30
2019-01-27T09:57:09.704Z,5.20
2019-01-27T09:59:50.257Z,5.20
2019-01-27T10:02:24.867Z,5.10
2019-01-27T10:04:59.356Z,5.10
2019-01-27T10:07:44.464Z,5.10
2019-01-27T10:10:41.681Z,5.00
2019-01-27T10:13:19.670Z,5.00
2019-01-27T10:16:11.397Z,5.00
2019-01-27T10:18:54.265Z,5.10
2019-01-27T10:21:42.417Z,5.10
2019-01-27T10:24:27.411Z,5.20
2019-01-27T10:27:14.333Z,5.20
2019-01-27T10:30:12.956Z,5.30
2019-01-27T10:33:12.259Z,5.30
2019-01-27T10:36:01.009Z,5.30
2019-01-27T10:38:41.938Z,5.30
2019-01-27T10:41:19.583Z,5.30
2019-01-27T10:44:06.425Z,5.30
2019-01-27T10:47:07.243Z,5.30
2019-01-27T10:50:01.273Z,5.30
2019-01-27T10:52:41.952Z,5.30
2019-01-27T10:55:19.958Z,5.40
2019-01-27T10:58:11.269Z,5.40
2019-01-27T11:00:58.710Z,5.40
2019-01-27T11:03:50.642Z,5.50
2019-01-27T11:06:48.357Z,5.50
2019-01-27T11:09:40.083Z,5.50
2019-01-27T11:12:31.286Z,5.50
2019-01-27T11:15:22.420Z,5.50
2019-01-27T11:18:19.163Z,5.50
2019-01-27T11:21:08.058Z,5.50
2019-01-27T11:24:02.765Z,5.50
2019-01-27T11:26:39.930Z,5.50
2019-01-27T11:29:37.857Z,5.50
2019-01-27T11:32:18.673Z,5.50
2019-01-27T11:35:06.998Z,5.50
2019-01-27T11:38:00.224Z,5.50
2019-01-27T11:41:01.009Z,5.50
2019-01-27T11:43:48.219Z,5.50
2019-01-27T11:46:48.538Z,5.50
2019-01-27T11:49:32.262Z,5.50
2019-01-27T11:52:05.806Z,5.50
2019-01-27T11:54:35.413Z,5.50
2019-01-27T11:57:04.677Z,5.50
2019-01-27T11:59:33.927Z,5.60
2019-01-27T12:02:03.377Z,5.60
2019-01-27T12:04:32.660Z,5.70
2019-01-27T12:07:01.924Z,5.70
2019-01-27T12:09:31.555Z,5.60
2019-01-27T12:12:01.092Z,5.70
2019-01-27T12:14:31.445Z,5.70
2019-01-27T12:17:01.574Z,5.70
2019-01-27T12:19:30.950Z,5.70
2019-01-27T12:22:00.765Z,5.60
2019-01-27T12:24:31.007Z,5.60
2019-01-27T12:27:00.340Z,5.60
2019-01-27T12:29:30.301Z,5.60
2019-01-27T12:31:59.553Z,5.60
2019-01-27T12:34:29.581Z,5.60
2019-01-27T12:36:59.503Z,5.60
2019-01-27T12:39:28.802Z,5.60
2019-01-27T12:41:58.175Z,5.60
2019-01-27T12:44:27.589Z,5.60
2019-01-27T12:46:57.229Z,5.60
2019-01-27T12:49:26.610Z,5.60
2019-01-27T12:51:57.147Z,5.60
2019-01-27T12:54:26.893Z,5.60
2019-01-27T12:56:56.778Z,5.60
2019-01-27T12:59:26.779Z,5.60
2019-01-27T13:01:57.154Z,5.60
2019-01-27T13:04:26.860Z,5.50
2019-01-27T13:06:57.652Z,5.50
2019-01-27T13:09:27.193Z,5.60
2019-01-27T13:11:58.315Z,5.60
2019-01-27T13:14:27.977Z,5.60
2019-01-27T13:16:59.538Z,5.60
2019-01-27T13:19:34.187Z,5.60
2019-01-27T13:22:04.435Z,5.60
2019-01-27T13:24:34.858Z,5.60
2019-01-27T13:27:09.371Z,5.60
2019-01-27T13:29:38.585Z,5.60
2019-01-27T13:32:08.162Z,5.60
2019-01-27T13:34:38.135Z,5.50
2019-01-27T13:37:07.865Z,5.50
2019-01-27T13:39:37.475Z,5.50
2019-01-27T13:42:07.546Z,5.50
2019-01-27T13:44:37.599Z,5.50
2019-01-27T13:47:07.945Z,5.50
2019-01-27T13:49:39.363Z,5.50
2019-01-27T13:52:14.340Z,5.50
2019-01-27T13:54:43.570Z,5.50
2019-01-27T13:57:13.888Z,5.50
2019-01-27T13:59:43.505Z,5.50
2019-01-27T14:02:12.714Z,5.50
2019-01-27T14:04:48.323Z,5.40
2019-01-27T14:07:13.425Z,5.40
2019-01-27T14:09:42.886Z,5.40
2019-01-27T14:12:26.944Z,5.50
2019-01-27T14:14:56.636Z,5.50
2019-01-27T14:17:26.267Z,5.50
2019-01-27T14:19:55.699Z,5.50
2019-01-27T14:22:28.189Z,5.50
2019-01-27T14:24:57.626Z,5.50
2019-01-27T14:27:27.845Z,5.50
2019-01-27T14:29:57.699Z,5.50
2019-01-27T14:32:26.997Z,5.50
2019-01-27T14:34:56.812Z,5.50
2019-01-27T14:37:26.340Z,5.50
2019-01-27T14:39:56.403Z,5.50
2019-01-27T14:42:26.198Z,5.50
2019-01-27T14:45:02.627Z,5.50
2019-01-27T14:47:35.721Z,5.50
2019-01-27T14:50:10.431Z,5.50
2019-01-27T14:52:43.301Z,5.50
2019-01-27T14:55:13.693Z,5.40
2019-01-27T14:57:44.559Z,5.40
2019-01-27T15:00:20.137Z,5.40
2019-01-27T15:02:49.503Z,5.40
2019-01-27T15:05:19.104Z,5.50
2019-01-27T15:07:48.859Z,5.40
2019-01-27T15:10:19.425Z,5.40
2019-01-27T15:12:49.034Z,5.40
2019-01-27T15:15:19.545Z,5.40
2019-01-27T15:17:48.991Z,5.40
2019-01-27T15:20:27.476Z,5.40
2019-01-27T15:22:56.729Z,5.30
2019-01-27T15:25:26.120Z,5.30
2019-01-27T15:27:55.307Z,5.30
2019-01-27T15:30:27.260Z,5.30
2019-01-27T15:32:57.210Z,5.30
2019-01-27T15:35:27.238Z,5.30
2019-01-27T15:37:56.910Z,5.30
2019-01-27T15:40:26.653Z,5.30
2019-01-27T15:42:56.018Z,5.20
2019-01-27T15:45:27.164Z,5.20
2019-01-27T15:47:56.585Z,5.20
2019-01-27T15:50:28.531Z,5.20
2019-01-27T15:52:58.358Z,5.20
2019-01-27T15:55:27.638Z,5.20
2019-01-27T15:57:57.512Z,5.20
2019-01-27T16:00:31.090Z,5.20
2019-01-27T16:03:00.930Z,5.20
2019-01-27T16:05:30.997Z,5.20
2019-01-27T16:08:00.747Z,5.20
2019-01-27T16:10:29.978Z,5.20
2019-01-27T16:12:59.291Z,5.10
2019-01-27T16:15:30.219Z,5.10
2019-01-27T16:17:59.933Z,5.10
2019-01-27T16:20:29.635Z,5.10
2019-01-27T16:23:09.124Z,5.10
2019-01-27T16:25:38.492Z,5.10
2019-01-27T16:28:07.705Z,5.10
2019-01-27T16:31:05.044Z,5.10
2019-01-27T16:33:39.943Z,5.10
2019-01-27T16:36:09.469Z,5.10
2019-01-27T16:38:38.715Z,5.10
2019-01-27T16:41:08.102Z,5.10
2019-01-27T16:43:56.748Z,5.10
2019-01-27T16:46:26.085Z,5.00
2019-01-27T16:48:55.657Z,5.00
2019-01-27T16:51:25.010Z,5.00
2019-01-27T16:53:54.697Z,5.00
2019-01-27T16:56:23.969Z,5.00
2019-01-27T16:58:53.328Z,5.00
2019-01-27T17:01:23.526Z,5.00
2019-01-27T17:03:52.759Z,5.00
2019-01-27T17:06:22.903Z,5.00
2019-01-27T17:08:52.519Z,5.00
2019-01-27T17:11:22.165Z,4.90
2019-01-27T17:13:51.420Z,4.90
2019-01-27T17:16:21.007Z,4.90
2019-01-27T17:18:52.690Z,4.90
2019-01-27T17:21:22.450Z,4.90
2019-01-27T17:24:11.253Z,4.90
2019-01-27T17:26:40.455Z,4.90
2019-01-27T17:29:10.996Z,4.80
2019-01-27T17:31:44.727Z,4.80
2019-01-27T17:34:17.304Z,4.80
2019-01-27T17:36:47.653Z,4.80
2019-01-27T17:39:17.774Z,4.80
2019-01-27T17:41:47.623Z,4.80
2019-01-27T17:44:17.448Z,4.80
2019-01-27T17:46:46.977Z,4.80
2019-01-27T17:49:16.440Z,4.80
2019-01-27T17:51:45.734Z,4.80
2019-01-27T17:54:15.291Z,4.80
2019-01-27T17:56:47.813Z,4.80
2019-01-27T17:59:45.356Z,4.70
2019-01-27T18:02:36.334Z,4.80
2019-01-27T18:05:31.023Z,4.70
2019-01-27T18:08:44.454Z,4.70
2019-01-27T18:11:28.021Z,4.70
2019-01-27T18:14:05.327Z,4.70
2019-01-27T18:16:34.820Z,4.70
2019-01-27T18:19:04.095Z,4.70
2019-01-27T18:21:33.647Z,4.70
2019-01-27T18:24:03.399Z,4.70
2019-01-27T18:26:33.401Z,4.70
2019-01-27T18:29:03.204Z,4.80
2019-01-27T18:31:32.514Z,4.70
2019-01-27T18:34:01.993Z,4.70
2019-01-27T18:36:31.622Z,4.70
2019-01-27T18:39:00.996Z,4.70
2019-01-27T18:41:30.218Z,4.70
2019-01-27T18:43:59.893Z,4.70
2019-01-27T18:46:29.280Z,4.70
2019-01-27T18:48:58.574Z,4.70
2019-01-27T18:51:28.314Z,4.70
2019-01-27T18:54:22.701Z,4.70
2019-01-27T18:57:01.038Z,4.70
2019-01-27T18:59:55.333Z,4.70
2019-01-27T19:02:43.625Z,4.70
2019-01-27T19:05:32.222Z,4.70
2019-01-27T19:08:21.182Z,4.70
2019-01-27T19:11:22.296Z,4.70
2019-01-27T19:14:16.575Z,4.70
2019-01-27T19:17:03.899Z,4.70
2019-01-27T19:19:55.010Z,4.70
2019-01-27T19:22:48.907Z,4.70
2019-01-27T19:25:43.304Z,4.70
2019-01-27T19:28:30.964Z,4.70
2019-01-27T19:31:18.230Z,4.70
2019-01-27T19:34:13.186Z,4.70
2019-01-27T19:37:10.730Z,4.70
2019-01-27T19:39:58.106Z,4.70
2019-01-27T19:42:46.970Z,4.70
2019-01-27T19:45:35.830Z,4.70
2019-01-27T19:48:42.282Z,4.60
2019-01-27T19:51:36.439Z,4.60
2019-01-27T19:54:26.711Z,4.60
2019-01-27T19:57:15.494Z,4.60
2019-01-27T20:00:04.769Z,4.50
2019-01-27T20:02:52.051Z,4.50
2019-01-27T20:05:37.189Z,4.50
2019-01-27T20:08:19.317Z,4.50
2019-01-27T20:11:02.814Z,4.40
2019-01-27T20:13:57.177Z,4.40
2019-01-27T20:16:35.475Z,4.40
2019-01-27T20:19:30.336Z,4.40
2019-01-27T20:22:17.138Z,4.30
2019-01-27T20:25:00.261Z,4.30
2019-01-27T20:27:39.801Z,4.30
2019-01-27T20:31:00.094Z,4.30
2019-01-27T20:33:48.597Z,4.20
2019-01-27T20:36:36.731Z,4.20
2019-01-27T20:39:33.288Z,4.20
2019-01-27T20:42:21.854Z,4.10
2019-01-27T20:45:33.003Z,4.10
2019-01-27T20:48:52.942Z,4.10
2019-01-27T20:51:50.689Z,4.10
2019-01-27T20:54:27.584Z,4.00
2019-01-27T20:57:22.399Z,4.00
2019-01-27T21:03:20.738Z,4.00
2019-01-27T21:05:58.771Z,3.90
2019-01-27T21:08:52.274Z,3.90
2019-01-27T21:11:46.490Z,3.90
2019-01-27T21:14:44.004Z,3.80
2019-01-27T21:17:20.625Z,3.80
2019-01-27T21:20:00.629Z,3.70
2019-01-27T21:22:29.881Z,3.70
2019-01-27T21:24:59.542Z,3.70
2019-01-27T21:27:29.275Z,3.70
2019-01-27T21:29:58.904Z,3.60
2019-01-27T21:32:28.629Z,3.60
2019-01-27T21:34:57.994Z,3.60
2019-01-27T21:37:27.299Z,3.60
2019-01-27T21:39:56.887Z,3.50
2019-01-27T21:42:26.149Z,3.50
2019-01-27T21:44:55.703Z,3.50
2019-01-27T21:47:25.752Z,3.50
2019-01-27T21:49:56.160Z,3.40
2019-01-27T21:52:25.416Z,3.40
2019-01-27T21:54:55.431Z,3.30
2019-01-27T21:57:25.061Z,3.30
2019-01-27T21:59:54.655Z,3.20
2019-01-27T22:02:24.247Z,3.10
2019-01-27T22:04:53.457Z,3.10
2019-01-27T22:07:23.807Z,3.00
2019-01-27T22:09:53.488Z,3.00
2019-01-27T22:12:22.736Z,2.90
2019-01-27T22:14:52.108Z,2.90
2019-01-27T22:17:21.454Z,2.80
2019-01-27T22:19:50.698Z,2.80
2019-01-27T22:22:20.318Z,2.70
2019-01-27T22:24:50.079Z,2.70
2019-01-27T22:27:19.970Z,2.70
2019-01-27T22:29:49.583Z,2.70
2019-01-27T22:32:18.959Z,2.70
2019-01-27T22:34:48.335Z,2.70
2019-01-27T22:37:18.419Z,2.70
2019-01-27T22:39:48.047Z,2.70
2019-01-27T22:42:17.312Z,2.70
2019-01-27T22:44:46.949Z,2.70
2019-01-27T22:47:16.953Z,2.70
2019-01-27T22:49:46.181Z,2.70
2019-01-27T22:52:15.774Z,2.70
2019-01-27T22:54:45.402Z,2.70
2019-01-27T22:57:14.784Z,2.70
2019-01-27T22:59:44.417Z,2.70
2019-01-27T23:02:13.969Z,2.70
2019-01-27T23:04:43.359Z,2.70
2019-01-27T23:07:12.702Z,2.70
2019-01-27T23:09:42.167Z,2.70
2019-01-27T23:12:11.844Z,2.70
2019-01-27T23:14:41.531Z,2.70
2019-01-27T23:17:11.508Z,2.70
2019-01-27T23:19:41.071Z,2.70
2019-01-27T23:22:10.262Z,2.70
2019-01-27T23:24:39.764Z,2.70
2019-01-27T23:27:09.170Z,2.70
2019-01-27T23:29:38.774Z,2.70
2019-01-27T23:32:27.353Z,2.60
2019-01-27T23:34:57.001Z,2.60
2019-01-27T23:37:26.847Z,2.70
2019-01-27T23:39:56.492Z,2.60
2019-01-27T23:42:26.739Z,2.60
2019-01-27T23:44:57.332Z,2.60
2019-01-27T23:47:26.677Z,2.60
2019-01-27T23:49:56.608Z,2.60
2019-01-27T23:52:25.995Z,2.50
2019-01-27T23:54:55.551Z,2.50
2019-01-27T23:57:25.242Z,2.50
2019-01-27T23:59:55.275Z,2.40
